createdAt,value
2018-03-01T00:01:42.997Z,994.57
2018-03-01T00:02:42.797Z,994.58
2018-03-01T00:04:35.608Z,994.62
2018-03-01T00:05:35.503Z,994.51
2018-03-01T00:07:28.539Z,994.50
2018-03-01T00:08:28.404Z,994.53
2018-03-01T00:10:21.168Z,994.50
2018-03-01T00:11:21.038Z,994.52
2018-03-01T00:13:14.309Z,994.46
2018-03-01T00:14:14.197Z,994.50
2018-03-01T00:16:06.998Z,994.57
2018-03-01T00:17:06.863Z,994.55
2018-03-01T00:19:00.033Z,994.51
2018-03-01T00:19:59.625Z,994.46
2018-03-01T00:21:52.379Z,994.45
2018-03-01T00:22:52.246Z,994.42
2018-03-01T00:24:45.316Z,994.37
2018-03-01T00:25:45.207Z,994.34
2018-03-01T00:27:38.204Z,994.31
2018-03-01T00:28:38.063Z,994.38
2018-03-01T00:30:30.881Z,994.37
2018-03-01T00:31:30.711Z,994.48
2018-03-01T00:33:23.600Z,994.36
2018-03-01T00:34:23.445Z,994.49
2018-03-01T00:36:16.205Z,994.32
2018-03-01T00:37:16.095Z,994.33
2018-03-01T00:39:08.878Z,994.40
2018-03-01T00:40:08.743Z,994.39
2018-03-01T00:42:01.496Z,994.43
2018-03-01T00:43:01.384Z,994.39
2018-03-01T00:44:54.181Z,994.34
2018-03-01T00:45:54.035Z,994.35
2018-03-01T00:47:46.887Z,994.37
2018-03-01T00:48:46.798Z,994.25
2018-03-01T00:50:39.559Z,994.33
2018-03-01T00:51:39.562Z,994.17
2018-03-01T00:53:32.271Z,994.14
2018-03-01T00:54:32.082Z,994.20
2018-03-01T00:56:24.855Z,994.20
2018-03-01T00:57:24.727Z,994.14
2018-03-01T00:59:17.510Z,994.12
2018-03-01T01:00:17.373Z,994.05
2018-03-01T01:02:10.276Z,993.99
2018-03-01T01:03:10.117Z,994.05
2018-03-01T01:05:02.898Z,993.99
2018-03-01T01:06:02.768Z,994.03
2018-03-01T01:07:55.566Z,994.09
2018-03-01T01:08:55.422Z,993.87
2018-03-01T01:10:48.282Z,994.01
2018-03-01T01:11:48.166Z,993.94
2018-03-01T01:13:40.938Z,993.93
2018-03-01T01:14:40.894Z,993.92
2018-03-01T01:16:34.079Z,993.90
2018-03-01T01:17:33.661Z,993.90
2018-03-01T01:19:26.793Z,993.86
2018-03-01T01:20:26.438Z,993.79
2018-03-01T01:22:19.381Z,993.74
2018-03-01T01:23:19.269Z,993.88
2018-03-01T01:25:12.154Z,993.78
2018-03-01T01:26:12.022Z,993.74
2018-03-01T01:28:04.879Z,993.73
2018-03-01T01:29:05.778Z,993.78
2018-03-01T01:31:12.540Z,993.74
2018-03-01T01:32:12.389Z,993.71
2018-03-01T01:34:05.128Z,993.72
2018-03-01T01:35:05.026Z,993.77
2018-03-01T01:36:58.396Z,993.62
2018-03-01T01:37:58.267Z,993.59
2018-03-01T01:39:51.539Z,993.70
2018-03-01T01:40:51.433Z,993.70
2018-03-01T01:42:44.831Z,993.54
2018-03-01T01:43:44.698Z,993.58
2018-03-01T01:45:37.548Z,993.59
2018-03-01T01:46:37.447Z,993.54
2018-03-01T01:48:30.320Z,993.46
2018-03-01T01:49:30.192Z,993.41
2018-03-01T01:51:23.053Z,993.48
2018-03-01T01:52:22.940Z,993.45
2018-03-01T01:54:15.813Z,993.60
2018-03-01T01:55:15.688Z,993.56
2018-03-01T01:57:08.545Z,993.51
2018-03-01T01:58:08.442Z,993.54
2018-03-01T02:00:01.333Z,993.46
2018-03-01T02:01:01.202Z,993.49
2018-03-01T02:02:53.968Z,993.60
2018-03-01T02:03:53.835Z,993.51
2018-03-01T02:05:46.729Z,993.43
2018-03-01T02:06:46.588Z,993.46
2018-03-01T02:08:39.473Z,993.45
2018-03-01T02:09:39.349Z,993.42
2018-03-01T02:11:32.231Z,993.33
2018-03-01T02:12:32.119Z,993.39
2018-03-01T02:14:24.967Z,993.35
2018-03-01T02:15:24.837Z,993.37
2018-03-01T02:17:17.714Z,993.40
2018-03-01T02:18:17.601Z,993.29
2018-03-01T02:20:10.459Z,993.27
2018-03-01T02:21:10.442Z,993.19
2018-03-01T02:23:04.137Z,993.19
2018-03-01T02:24:04.031Z,993.15
2018-03-01T02:25:56.882Z,993.22
2018-03-01T02:26:56.782Z,993.12
2018-03-01T02:28:49.622Z,993.03
2018-03-01T02:29:49.508Z,993.08
2018-03-01T02:31:42.403Z,993.03
2018-03-01T02:32:42.253Z,993.06
2018-03-01T02:34:35.140Z,993.08
2018-03-01T02:35:35.004Z,993.03
2018-03-01T02:37:27.911Z,993.02
2018-03-01T02:38:27.762Z,992.96
2018-03-01T02:40:20.628Z,992.98
2018-03-01T02:41:20.505Z,993.07
2018-03-01T02:43:13.401Z,992.90
2018-03-01T02:44:13.253Z,993.00
2018-03-01T02:46:06.123Z,993.00
2018-03-01T02:47:06.018Z,992.69
2018-03-01T02:48:58.928Z,992.85
2018-03-01T02:49:58.750Z,992.93
2018-03-01T02:51:51.655Z,992.83
2018-03-01T02:52:51.506Z,992.88
2018-03-01T02:54:44.810Z,992.92
2018-03-01T02:55:44.657Z,992.86
2018-03-01T02:57:37.523Z,992.94
2018-03-01T02:58:37.409Z,992.91
2018-03-01T03:00:30.298Z,992.94
2018-03-01T03:01:30.166Z,992.90
2018-03-01T03:03:23.026Z,992.94
2018-03-01T03:04:22.921Z,992.89
2018-03-01T03:06:15.790Z,992.96
2018-03-01T03:07:15.666Z,993.00
2018-03-01T03:09:08.533Z,992.86
2018-03-01T03:10:08.895Z,992.91
2018-03-01T03:12:01.313Z,992.91
2018-03-01T03:13:01.157Z,992.88
2018-03-01T03:14:54.053Z,992.77
2018-03-01T03:15:53.927Z,992.83
2018-03-01T03:17:46.777Z,992.75
2018-03-01T03:18:46.658Z,992.72
2018-03-01T03:20:39.558Z,992.66
2018-03-01T03:21:39.406Z,992.79
2018-03-01T03:23:32.290Z,992.74
2018-03-01T03:24:32.197Z,992.75
2018-03-01T03:26:25.051Z,992.73
2018-03-01T03:27:24.968Z,992.65
2018-03-01T03:29:17.776Z,992.74
2018-03-01T03:30:17.666Z,992.72
2018-03-01T03:32:10.557Z,992.66
2018-03-01T03:33:10.403Z,992.67
2018-03-01T03:35:03.331Z,992.60
2018-03-01T03:36:03.188Z,992.54
2018-03-01T03:37:56.058Z,992.53
2018-03-01T03:38:55.902Z,992.51
2018-03-01T03:40:48.777Z,992.39
2018-03-01T03:41:48.651Z,992.47
2018-03-01T03:43:41.931Z,992.40
2018-03-01T03:44:41.811Z,992.38
2018-03-01T03:46:34.712Z,992.37
2018-03-01T03:47:34.558Z,992.20
2018-03-01T03:49:27.429Z,992.26
2018-03-01T03:50:27.308Z,992.26
2018-03-01T03:52:20.191Z,992.19
2018-03-01T03:53:20.081Z,992.15
2018-03-01T03:55:12.918Z,992.22
2018-03-01T03:56:12.832Z,992.16
2018-03-01T03:58:05.701Z,992.11
2018-03-01T03:59:05.556Z,992.14
2018-03-01T04:00:58.445Z,992.16
2018-03-01T04:01:58.314Z,992.07
2018-03-01T04:03:51.696Z,992.11
2018-03-01T04:04:51.568Z,991.99
2018-03-01T04:06:44.948Z,992.01
2018-03-01T04:07:44.835Z,992.03
2018-03-01T04:09:37.707Z,991.94
2018-03-01T04:10:37.578Z,991.89
2018-03-01T04:12:30.503Z,991.92
2018-03-01T04:13:30.328Z,991.96
2018-03-01T04:15:23.609Z,991.82
2018-03-01T04:16:23.488Z,991.86
2018-03-01T04:18:16.878Z,991.85
2018-03-01T04:19:16.783Z,991.77
2018-03-01T04:21:10.296Z,991.80
2018-03-01T04:22:10.112Z,991.87
2018-03-01T04:24:02.976Z,991.88
2018-03-01T04:25:02.872Z,991.89
2018-03-01T04:26:55.845Z,991.79
2018-03-01T04:27:55.734Z,991.77
2018-03-01T04:29:48.584Z,991.89
2018-03-01T04:30:48.396Z,991.84
2018-03-01T04:32:41.967Z,991.69
2018-03-01T04:33:41.835Z,991.71
2018-03-01T04:35:34.694Z,991.74
2018-03-01T04:36:34.592Z,991.68
2018-03-01T04:38:27.472Z,991.73
2018-03-01T04:39:27.334Z,991.82
2018-03-01T04:41:20.196Z,991.68
2018-03-01T04:42:20.079Z,991.72
2018-03-01T04:44:12.954Z,991.75
2018-03-01T04:45:12.878Z,991.71
2018-03-01T04:47:05.684Z,991.63
2018-03-01T04:48:05.600Z,991.57
2018-03-01T04:49:58.464Z,991.55
2018-03-01T04:50:58.338Z,991.61
2018-03-01T04:52:51.220Z,991.51
2018-03-01T04:53:51.079Z,991.51
2018-03-01T04:55:44.016Z,991.48
2018-03-01T04:56:43.826Z,991.49
2018-03-01T04:58:36.692Z,991.39
2018-03-01T04:59:36.588Z,991.39
2018-03-01T05:01:29.447Z,991.38
2018-03-01T05:02:29.324Z,991.37
2018-03-01T05:04:22.236Z,991.38
2018-03-01T05:05:22.077Z,991.44
2018-03-01T05:07:14.949Z,991.42
2018-03-01T05:08:14.824Z,991.45
2018-03-01T05:10:07.690Z,991.43
2018-03-01T05:11:07.581Z,991.41
2018-03-01T05:13:01.917Z,991.35
2018-03-01T05:14:01.782Z,991.34
2018-03-01T05:15:54.662Z,991.25
2018-03-01T05:16:54.511Z,991.33
2018-03-01T05:18:47.285Z,991.28
2018-03-01T05:19:47.161Z,991.26
2018-03-01T05:21:40.025Z,991.31
2018-03-01T05:22:39.921Z,991.25
2018-03-01T05:24:32.782Z,991.25
2018-03-01T05:25:32.658Z,991.21
2018-03-01T05:27:25.523Z,991.20
2018-03-01T05:28:25.398Z,991.17
2018-03-01T05:30:18.280Z,991.23
2018-03-01T05:31:18.195Z,991.16
2018-03-01T05:33:11.009Z,991.23
2018-03-01T05:34:10.902Z,991.17
2018-03-01T05:36:03.831Z,991.22
2018-03-01T05:37:03.682Z,991.16
2018-03-01T05:38:56.513Z,991.17
2018-03-01T05:39:56.408Z,991.20
2018-03-01T05:41:49.286Z,991.13
2018-03-01T05:42:49.144Z,991.23
2018-03-01T05:44:42.628Z,991.13
2018-03-01T05:45:42.509Z,991.13
2018-03-01T05:47:35.341Z,991.13
2018-03-01T05:48:35.164Z,991.15
2018-03-01T05:50:27.915Z,991.12
2018-03-01T05:51:27.814Z,991.13
2018-03-01T05:53:20.588Z,991.14
2018-03-01T05:54:20.458Z,991.12
2018-03-01T05:56:13.222Z,991.14
2018-03-01T05:57:13.117Z,991.12
2018-03-01T05:59:05.877Z,991.18
2018-03-01T06:00:05.767Z,991.21
2018-03-01T06:01:58.517Z,991.20
2018-03-01T06:02:58.411Z,991.18
2018-03-01T06:04:51.177Z,991.15
2018-03-01T06:05:51.059Z,991.12
2018-03-01T06:07:45.345Z,991.07
2018-03-01T06:08:45.253Z,991.08
2018-03-01T06:10:38.103Z,991.13
2018-03-01T06:11:37.975Z,991.08
2018-03-01T06:13:30.865Z,991.11
2018-03-01T06:14:30.727Z,991.14
2018-03-01T06:16:23.606Z,991.14
2018-03-01T06:17:23.541Z,991.12
2018-03-01T06:19:16.350Z,991.15
2018-03-01T06:20:16.239Z,991.12
2018-03-01T06:22:09.238Z,991.14
2018-03-01T06:23:08.978Z,991.13
2018-03-01T06:25:01.879Z,991.14
2018-03-01T06:26:01.733Z,991.14
2018-03-01T06:27:54.602Z,991.16
2018-03-01T06:28:54.478Z,991.11
2018-03-01T06:30:47.440Z,991.09
2018-03-01T06:31:47.249Z,991.00
2018-03-01T06:33:40.088Z,991.09
2018-03-01T06:34:39.979Z,991.07
2018-03-01T06:36:32.855Z,991.14
2018-03-01T06:37:32.721Z,991.11
2018-03-01T06:39:25.583Z,991.07
2018-03-01T06:40:25.486Z,991.07
2018-03-01T06:42:18.370Z,991.02
2018-03-01T06:43:18.224Z,990.98
2018-03-01T06:45:11.084Z,990.95
2018-03-01T06:46:10.969Z,991.04
2018-03-01T06:48:03.846Z,991.04
2018-03-01T06:49:03.741Z,991.03
2018-03-01T06:50:57.109Z,991.06
2018-03-01T06:51:57.007Z,991.03
2018-03-01T06:53:49.871Z,991.09
2018-03-01T06:54:49.729Z,991.00
2018-03-01T06:56:43.062Z,991.00
2018-03-01T06:57:42.478Z,991.01
2018-03-01T06:59:35.372Z,990.99
2018-03-01T07:00:35.282Z,990.99
2018-03-01T07:02:28.915Z,990.95
2018-03-01T07:03:28.795Z,990.93
2018-03-01T07:05:21.586Z,990.89
2018-03-01T07:06:21.453Z,990.93
2018-03-01T07:08:14.306Z,990.92
2018-03-01T07:09:14.196Z,990.90
2018-03-01T07:11:09.099Z,990.87
2018-03-01T07:12:08.889Z,990.79
2018-03-01T07:14:02.372Z,990.83
2018-03-01T07:15:02.261Z,990.80
2018-03-01T07:16:55.679Z,990.84
2018-03-01T07:17:55.518Z,990.87
2018-03-01T07:19:48.384Z,990.89
2018-03-01T07:20:48.271Z,990.91
2018-03-01T07:22:42.679Z,990.84
2018-03-01T07:23:41.535Z,990.85
2018-03-01T07:25:34.941Z,990.86
2018-03-01T07:26:34.786Z,990.84
2018-03-01T07:28:27.678Z,990.74
2018-03-01T07:29:27.538Z,990.78
2018-03-01T07:31:20.487Z,990.76
2018-03-01T07:32:21.768Z,990.66
2018-03-01T07:34:13.214Z,990.62
2018-03-01T07:35:13.049Z,990.71
2018-03-01T07:37:06.010Z,990.63
2018-03-01T07:38:05.896Z,990.62
2018-03-01T07:39:58.784Z,990.60
2018-03-01T07:40:58.652Z,990.65
2018-03-01T07:42:52.042Z,990.71
2018-03-01T07:43:51.912Z,990.64
2018-03-01T07:45:44.808Z,990.62
2018-03-01T07:46:44.652Z,990.61
2018-03-01T07:48:37.631Z,990.80
2018-03-01T07:49:37.508Z,990.65
2018-03-01T07:51:30.402Z,990.68
2018-03-01T07:52:30.257Z,990.68
2018-03-01T07:54:23.634Z,990.64
2018-03-01T07:55:23.521Z,990.62
2018-03-01T07:57:16.388Z,990.63
2018-03-01T07:58:16.262Z,990.57
2018-03-01T08:00:09.162Z,990.63
2018-03-01T08:01:09.020Z,990.65
2018-03-01T08:03:01.914Z,990.58
2018-03-01T08:04:01.767Z,990.53
2018-03-01T08:05:54.631Z,990.59
2018-03-01T08:06:54.514Z,990.59
2018-03-01T08:08:47.411Z,990.54
2018-03-01T08:09:47.264Z,990.57
2018-03-01T08:11:40.147Z,990.53
2018-03-01T08:12:40.009Z,990.74
2018-03-01T08:14:32.892Z,990.55
2018-03-01T08:15:32.773Z,990.62
2018-03-01T08:17:25.633Z,990.60
2018-03-01T08:18:25.507Z,990.62
2018-03-01T08:20:18.436Z,990.61
2018-03-01T08:21:18.261Z,990.61
2018-03-01T08:23:11.139Z,990.57
2018-03-01T08:24:11.015Z,990.51
2018-03-01T08:26:03.923Z,990.57
2018-03-01T08:27:03.771Z,990.53
2018-03-01T08:28:56.626Z,990.53
2018-03-01T08:29:56.510Z,990.49
2018-03-01T08:31:49.404Z,990.49
2018-03-01T08:32:49.261Z,990.54
2018-03-01T08:34:42.635Z,990.49
2018-03-01T08:35:42.546Z,990.48
2018-03-01T08:37:35.427Z,990.42
2018-03-01T08:38:35.267Z,990.51
2018-03-01T08:40:28.185Z,990.46
2018-03-01T08:41:28.020Z,990.48
2018-03-01T08:43:20.916Z,990.37
2018-03-01T08:44:20.774Z,990.34
2018-03-01T08:46:14.143Z,990.31
2018-03-01T08:47:14.032Z,990.33
2018-03-01T08:49:06.906Z,990.31
2018-03-01T08:50:06.793Z,990.28
2018-03-01T08:51:59.759Z,990.28
2018-03-01T08:52:59.641Z,990.30
2018-03-01T08:54:52.527Z,990.30
2018-03-01T08:55:52.388Z,990.23
2018-03-01T08:57:45.710Z,990.21
2018-03-01T08:58:45.143Z,990.17
2018-03-01T09:00:38.026Z,990.09
2018-03-01T09:01:37.888Z,990.17
2018-03-01T09:03:30.761Z,990.05
2018-03-01T09:04:30.630Z,990.04
2018-03-01T09:06:23.522Z,990.02
2018-03-01T09:07:23.389Z,990.06
2018-03-01T09:09:16.248Z,990.07
2018-03-01T09:10:16.135Z,990.02
2018-03-01T09:12:09.020Z,989.94
2018-03-01T09:13:08.879Z,989.98
2018-03-01T09:15:01.752Z,989.91
2018-03-01T09:16:01.637Z,989.81
2018-03-01T09:17:54.533Z,989.86
2018-03-01T09:18:54.412Z,989.77
2018-03-01T09:20:47.242Z,989.75
2018-03-01T09:21:47.126Z,989.89
2018-03-01T09:23:40.014Z,989.85
2018-03-01T09:24:39.887Z,989.79
2018-03-01T09:26:32.741Z,989.74
2018-03-01T09:27:32.631Z,989.74
2018-03-01T09:29:25.976Z,989.77
2018-03-01T09:30:25.393Z,989.67
2018-03-01T09:32:18.758Z,989.84
2018-03-01T09:33:18.644Z,989.74
2018-03-01T09:35:11.533Z,989.83
2018-03-01T09:36:11.396Z,989.83
2018-03-01T09:38:04.265Z,989.79
2018-03-01T09:39:04.147Z,989.86
2018-03-01T09:40:57.206Z,989.79
2018-03-01T09:41:56.922Z,989.77
2018-03-01T09:43:49.746Z,989.83
2018-03-01T09:44:49.638Z,989.75
2018-03-01T09:46:42.529Z,989.82
2018-03-01T09:47:42.399Z,989.80
2018-03-01T09:49:35.252Z,989.74
2018-03-01T09:50:35.142Z,989.72
2018-03-01T09:52:28.003Z,989.70
2018-03-01T09:53:27.897Z,989.70
2018-03-01T09:55:21.790Z,989.60
2018-03-01T09:56:21.670Z,989.55
2018-03-01T09:58:14.547Z,989.66
2018-03-01T09:59:14.424Z,989.52
2018-03-01T10:01:07.294Z,989.61
2018-03-01T10:02:07.171Z,989.60
2018-03-01T10:04:00.047Z,989.52
2018-03-01T10:04:59.914Z,989.52
2018-03-01T10:06:52.766Z,989.55
2018-03-01T10:07:52.662Z,989.50
2018-03-01T10:09:45.561Z,989.55
2018-03-01T10:10:45.423Z,989.56
2018-03-01T10:12:38.270Z,989.44
2018-03-01T10:13:38.168Z,989.48
2018-03-01T10:15:31.065Z,989.45
2018-03-01T10:16:30.918Z,989.38
2018-03-01T10:18:23.890Z,989.50
2018-03-01T10:19:23.760Z,989.48
2018-03-01T10:21:16.645Z,989.38
2018-03-01T10:22:16.526Z,989.50
2018-03-01T10:24:09.372Z,989.27
2018-03-01T10:25:09.257Z,989.18
2018-03-01T10:27:02.136Z,989.19
2018-03-01T10:28:02.007Z,989.19
2018-03-01T10:29:54.874Z,989.31
2018-03-01T10:30:54.759Z,989.19
2018-03-01T10:32:47.644Z,989.16
2018-03-01T10:33:47.510Z,989.26
2018-03-01T10:35:40.376Z,989.25
2018-03-01T10:36:40.256Z,989.14
2018-03-01T10:38:33.149Z,989.20
2018-03-01T10:39:33.071Z,989.14
2018-03-01T10:41:25.893Z,989.11
2018-03-01T10:42:25.767Z,989.15
2018-03-01T10:44:18.645Z,989.16
2018-03-01T10:45:18.506Z,989.17
2018-03-01T10:47:11.392Z,989.06
2018-03-01T10:48:11.267Z,989.15
2018-03-01T10:50:04.148Z,989.05
2018-03-01T10:51:04.075Z,989.11
2018-03-01T10:52:56.867Z,989.06
2018-03-01T10:53:56.776Z,989.15
2018-03-01T10:55:49.634Z,989.09
2018-03-01T10:56:49.512Z,989.11
2018-03-01T10:58:42.364Z,989.01
2018-03-01T10:59:42.253Z,989.04
2018-03-01T11:01:35.641Z,988.80
2018-03-01T11:02:35.520Z,988.94
2018-03-01T11:04:28.377Z,988.70
2018-03-01T11:05:28.267Z,988.86
2018-03-01T11:07:21.144Z,988.77
2018-03-01T11:08:21.020Z,988.75
2018-03-01T11:10:13.883Z,988.63
2018-03-01T11:11:13.789Z,988.69
2018-03-01T11:13:06.646Z,988.67
2018-03-01T11:14:06.516Z,988.56
2018-03-01T11:15:59.294Z,988.50
2018-03-01T11:16:59.168Z,988.62
2018-03-01T11:18:51.931Z,988.55
2018-03-01T11:19:51.814Z,988.43
2018-03-01T11:21:44.565Z,988.51
2018-03-01T11:22:44.457Z,988.40
2018-03-01T11:24:37.229Z,988.34
2018-03-01T11:25:37.113Z,988.27
2018-03-01T11:27:30.164Z,988.25
2018-03-01T11:28:30.067Z,988.27
2018-03-01T11:30:22.859Z,988.28
2018-03-01T11:31:22.708Z,988.08
2018-03-01T11:33:15.468Z,988.12
2018-03-01T11:34:15.364Z,988.06
2018-03-01T11:36:08.152Z,988.03
2018-03-01T11:37:08.017Z,988.08
2018-03-01T11:39:00.756Z,988.06
2018-03-01T11:40:00.651Z,987.95
2018-03-01T11:41:53.471Z,987.99
2018-03-01T11:42:53.304Z,988.01
2018-03-01T11:44:46.313Z,987.98
2018-03-01T11:45:46.157Z,987.97
2018-03-01T11:47:38.938Z,987.97
2018-03-01T11:48:38.794Z,988.07
2018-03-01T11:50:31.552Z,987.98
2018-03-01T11:51:31.447Z,987.95
2018-03-01T11:53:24.573Z,987.87
2018-03-01T11:54:24.193Z,987.82
2018-03-01T11:56:16.950Z,987.81
2018-03-01T11:57:16.893Z,987.66
2018-03-01T11:59:09.869Z,987.73
2018-03-01T12:00:09.491Z,987.72
2018-03-01T12:02:02.249Z,987.77
2018-03-01T12:03:02.165Z,987.77
2018-03-01T12:04:55.162Z,987.90
2018-03-01T12:05:54.781Z,987.77
2018-03-01T12:07:47.590Z,987.73
2018-03-01T12:08:47.438Z,987.77
2018-03-01T12:10:40.230Z,987.67
2018-03-01T12:11:40.080Z,987.73
2018-03-01T12:13:32.835Z,987.66
2018-03-01T12:14:32.737Z,987.66
2018-03-01T12:16:25.512Z,987.63
2018-03-01T12:17:25.393Z,987.57
2018-03-01T12:19:18.127Z,987.51
2018-03-01T12:20:18.026Z,987.59
2018-03-01T12:22:11.052Z,987.51
2018-03-01T12:23:10.678Z,987.55
2018-03-01T12:25:03.422Z,987.55
2018-03-01T12:26:03.318Z,987.56
2018-03-01T12:27:56.205Z,987.60
2018-03-01T12:28:56.081Z,987.47
2018-03-01T12:30:48.817Z,987.38
2018-03-01T12:31:48.722Z,987.38
2018-03-01T12:33:41.486Z,987.39
2018-03-01T12:34:41.396Z,987.30
2018-03-01T12:36:34.116Z,987.30
2018-03-01T12:37:34.015Z,987.30
2018-03-01T12:39:27.020Z,987.27
2018-03-01T12:40:26.686Z,987.30
2018-03-01T12:42:19.697Z,987.19
2018-03-01T12:43:19.318Z,987.27
2018-03-01T12:45:12.081Z,987.22
2018-03-01T12:46:11.970Z,987.14
2018-03-01T12:48:04.848Z,987.18
2018-03-01T12:49:04.603Z,987.16
2018-03-01T12:50:57.766Z,987.20
2018-03-01T12:51:57.254Z,987.19
2018-03-01T12:53:50.033Z,987.19
2018-03-01T12:54:49.895Z,987.26
2018-03-01T12:56:42.678Z,987.17
2018-03-01T12:57:42.575Z,987.06
2018-03-01T12:59:35.290Z,987.12
2018-03-01T13:00:35.183Z,987.10
2018-03-01T13:02:28.221Z,987.10
2018-03-01T13:03:27.852Z,987.16
2018-03-01T13:05:20.669Z,987.18
2018-03-01T13:06:20.486Z,987.16
2018-03-01T13:08:13.607Z,987.11
2018-03-01T13:09:13.236Z,987.08
2018-03-01T13:11:06.697Z,987.07
2018-03-01T13:12:06.586Z,987.04
2018-03-01T13:13:59.368Z,987.09
2018-03-01T13:14:59.251Z,987.02
2018-03-01T13:16:52.005Z,987.12
2018-03-01T13:17:51.897Z,987.04
2018-03-01T13:19:44.651Z,986.94
2018-03-01T13:20:44.542Z,986.91
2018-03-01T13:22:37.410Z,986.96
2018-03-01T13:23:37.284Z,986.91
2018-03-01T13:25:30.551Z,986.94
2018-03-01T13:26:30.450Z,986.87
2018-03-01T13:28:23.229Z,986.95
2018-03-01T13:29:23.094Z,986.78
2018-03-01T13:31:15.849Z,986.82
2018-03-01T13:32:15.748Z,986.71
2018-03-01T13:34:08.529Z,986.79
2018-03-01T13:35:08.392Z,986.76
2018-03-01T13:37:01.242Z,986.69
2018-03-01T13:38:01.043Z,986.78
2018-03-01T13:39:53.854Z,986.61
2018-03-01T13:40:53.678Z,986.71
2018-03-01T13:42:46.444Z,986.59
2018-03-01T13:43:46.375Z,986.58
2018-03-01T13:45:39.114Z,986.56
2018-03-01T13:46:38.986Z,986.60
2018-03-01T13:48:31.738Z,986.61
2018-03-01T13:49:31.621Z,986.63
2018-03-01T13:51:24.418Z,986.53
2018-03-01T13:52:24.276Z,986.62
2018-03-01T13:54:17.032Z,986.66
2018-03-01T13:55:16.924Z,986.69
2018-03-01T13:57:09.681Z,986.60
2018-03-01T13:58:09.570Z,986.69
2018-03-01T14:00:02.317Z,986.56
2018-03-01T14:01:02.211Z,986.63
2018-03-01T14:02:55.265Z,986.62
2018-03-01T14:03:54.867Z,986.63
2018-03-01T14:05:47.624Z,986.58
2018-03-01T14:06:47.508Z,986.65
2018-03-01T14:08:40.290Z,986.55
2018-03-01T14:09:40.161Z,986.54
2018-03-01T14:11:32.898Z,986.42
2018-03-01T14:12:32.810Z,986.45
2018-03-01T14:14:25.936Z,986.41
2018-03-01T14:15:25.551Z,986.38
2018-03-01T14:17:18.318Z,986.32
2018-03-01T14:18:18.210Z,986.28
2018-03-01T14:20:11.216Z,986.40
2018-03-01T14:21:10.859Z,986.32
2018-03-01T14:23:03.598Z,986.29
2018-03-01T14:24:03.489Z,986.28
2018-03-01T14:25:56.322Z,986.27
2018-03-01T14:26:56.136Z,986.20
2018-03-01T14:28:48.985Z,986.16
2018-03-01T14:29:48.883Z,986.25
2018-03-01T14:31:41.680Z,986.30
2018-03-01T14:32:41.540Z,986.17
2018-03-01T14:34:34.390Z,986.17
2018-03-01T14:35:34.315Z,986.18
2018-03-01T14:37:27.089Z,986.16
2018-03-01T14:38:26.932Z,986.08
2018-03-01T14:40:19.677Z,986.05
2018-03-01T14:41:19.587Z,986.01
2018-03-01T14:43:12.366Z,986.09
2018-03-01T14:44:12.221Z,986.10
2018-03-01T14:46:04.982Z,986.04
2018-03-01T14:47:04.882Z,985.96
2018-03-01T14:48:57.675Z,985.98
2018-03-01T14:49:57.522Z,985.94
2018-03-01T14:51:50.425Z,985.94
2018-03-01T14:52:50.308Z,985.93
2018-03-01T14:54:43.059Z,985.85
2018-03-01T14:55:42.915Z,985.94
2018-03-01T14:57:35.764Z,985.90
2018-03-01T14:58:35.656Z,985.86
2018-03-01T15:00:28.454Z,985.78
2018-03-01T15:01:28.312Z,985.78
2018-03-01T15:03:21.176Z,985.82
2018-03-01T15:04:21.055Z,985.72
2018-03-01T15:06:13.971Z,985.79
2018-03-01T15:07:13.812Z,985.85
2018-03-01T15:09:06.576Z,985.75
2018-03-01T15:10:06.458Z,985.89
2018-03-01T15:11:59.260Z,985.90
2018-03-01T15:12:59.132Z,985.91
2018-03-01T15:14:51.968Z,985.83
2018-03-01T15:15:51.852Z,985.92
2018-03-01T15:17:44.661Z,985.94
2018-03-01T15:18:44.498Z,985.90
2018-03-01T15:20:37.780Z,985.87
2018-03-01T15:21:37.674Z,985.90
2018-03-01T15:23:30.450Z,985.85
2018-03-01T15:24:30.314Z,985.78
2018-03-01T15:26:23.573Z,985.70
2018-03-01T15:27:23.473Z,985.70
2018-03-01T15:29:16.259Z,985.78
2018-03-01T15:30:16.119Z,985.77
2018-03-01T15:32:08.968Z,985.78
2018-03-01T15:33:08.859Z,985.79
2018-03-01T15:35:01.787Z,985.80
2018-03-01T15:36:01.613Z,985.78
2018-03-01T15:37:54.468Z,985.67
2018-03-01T15:38:54.380Z,985.65
2018-03-01T15:40:47.256Z,985.61
2018-03-01T15:41:47.120Z,985.57
2018-03-01T15:43:39.974Z,985.52
2018-03-01T15:44:39.875Z,985.54
2018-03-01T15:46:32.769Z,985.57
2018-03-01T15:47:32.647Z,985.50
2018-03-01T15:49:25.464Z,985.54
2018-03-01T15:50:25.379Z,985.46
2018-03-01T15:52:18.493Z,985.50
2018-03-01T15:53:18.113Z,985.48
2018-03-01T15:55:11.100Z,985.46
2018-03-01T15:56:10.967Z,985.40
2018-03-01T15:58:03.867Z,985.35
2018-03-01T15:59:03.743Z,985.34
2018-03-01T16:00:56.609Z,985.31
2018-03-01T16:01:56.492Z,985.41
2018-03-01T16:03:49.351Z,985.44
2018-03-01T16:04:49.209Z,985.45
2018-03-01T16:06:42.058Z,985.38
2018-03-01T16:07:41.981Z,985.39
2018-03-01T16:09:34.822Z,985.42
2018-03-01T16:10:34.714Z,985.43
2018-03-01T16:12:27.567Z,985.37
2018-03-01T16:13:27.458Z,985.39
2018-03-01T16:15:20.260Z,985.38
2018-03-01T16:16:20.105Z,985.32
2018-03-01T16:18:12.956Z,985.39
2018-03-01T16:19:12.850Z,985.37
2018-03-01T16:21:07.001Z,985.24
2018-03-01T16:22:06.631Z,985.37
2018-03-01T16:23:59.477Z,985.33
2018-03-01T16:24:59.375Z,985.25
2018-03-01T16:26:52.168Z,985.30
2018-03-01T16:27:52.062Z,985.35
2018-03-01T16:29:46.314Z,985.31
2018-03-01T16:30:46.208Z,985.25
2018-03-01T16:32:39.101Z,985.25
2018-03-01T16:33:38.970Z,985.29
2018-03-01T16:35:31.817Z,985.36
2018-03-01T16:36:31.758Z,985.29
2018-03-01T16:38:24.840Z,985.31
2018-03-01T16:39:24.461Z,985.34
2018-03-01T16:41:17.308Z,985.34
2018-03-01T16:42:17.210Z,985.37
2018-03-01T16:44:10.090Z,985.36
2018-03-01T16:45:09.962Z,985.30
2018-03-01T16:47:03.336Z,985.33
2018-03-01T16:48:03.213Z,985.42
2018-03-01T16:49:55.997Z,985.44
2018-03-01T16:50:55.860Z,985.47
2018-03-01T16:52:48.732Z,985.41
2018-03-01T16:53:48.612Z,985.44
2018-03-01T16:55:41.413Z,985.32
2018-03-01T16:56:41.258Z,985.33
2018-03-01T16:58:34.114Z,985.30
2018-03-01T16:59:34.012Z,985.33
2018-03-01T17:01:27.557Z,985.28
2018-03-01T17:02:27.162Z,985.27
2018-03-01T17:04:24.950Z,985.30
2018-03-01T17:05:24.832Z,985.29
2018-03-01T17:07:18.141Z,985.30
2018-03-01T17:08:17.993Z,985.27
2018-03-01T17:10:12.287Z,985.21
2018-03-01T17:11:12.183Z,985.22
2018-03-01T17:13:05.297Z,985.26
2018-03-01T17:14:04.931Z,985.32
2018-03-01T17:15:57.680Z,985.24
2018-03-01T17:16:57.573Z,985.31
2018-03-01T17:18:51.099Z,985.32
2018-03-01T17:19:50.760Z,985.32
2018-03-01T17:21:43.586Z,985.35
2018-03-01T17:22:43.478Z,985.35
2018-03-01T17:24:36.754Z,985.34
2018-03-01T17:25:36.640Z,985.30
2018-03-01T17:27:29.490Z,985.32
2018-03-01T17:28:29.388Z,985.31
2018-03-01T17:30:22.180Z,985.33
2018-03-01T17:31:22.033Z,985.31
2018-03-01T17:33:14.792Z,985.30
2018-03-01T17:34:14.686Z,985.32
2018-03-01T17:36:07.570Z,985.27
2018-03-01T17:37:07.485Z,985.23
2018-03-01T17:39:00.828Z,985.24
2018-03-01T17:40:00.718Z,985.24
2018-03-01T17:41:53.873Z,985.25
2018-03-01T17:42:53.447Z,985.26
2018-03-01T17:44:47.739Z,985.23
2018-03-01T17:45:47.733Z,985.25
2018-03-01T17:47:40.510Z,985.32
2018-03-01T17:48:40.366Z,985.33
2018-03-01T17:50:33.249Z,985.26
2018-03-01T17:51:33.117Z,985.28
2018-03-01T17:53:26.010Z,985.25
2018-03-01T17:54:25.868Z,985.27
2018-03-01T17:56:18.751Z,985.25
2018-03-01T17:57:18.625Z,985.33
2018-03-01T17:59:11.494Z,985.33